Time;durP1;ratioP1;P1;durP2;ratioP2;P2;SDS_P1;SDS_P2;PMS_P1;PMS_P2;Temp;Humidity;BMP_temperature;BMP_pressure;BME280_temperature;BME280_humidity;BME280_pressure;Samples;Min_cycle;Max_cycle;Signal;HPM_P1;HPM_P2
2023/02/08 00:02:19;;;;;;;9.82;2.95;;;;;;;;;;5031188;28;20041;-39
2023/02/08 00:04:45;;;;;;;13.98;6.10;;;;;;;;;;5031301;28;20032;-39
2023/02/08 00:07:10;;;;;;;12.95;6.05;;;;;;;;;;5031151;28;20250;-39
2023/02/08 00:09:36;;;;;;;5.78;3.65;;;;;;;;;;5033549;28;20030;-40
2023/02/08 00:12:02;;;;;;;8.52;4.75;;;;;;;;;;5035299;28;20041;-39
2023/02/08 00:14:27;;;;;;;13.10;6.47;;;;;;;;;;5035240;28;20471;-39
2023/02/08 00:16:52;;;;;;;10.88;5.40;;;;;;;;;;5035317;28;20041;-39
2023/02/08 00:19:18;;;;;;;8.15;4.35;;;;;;;;;;5033992;28;20491;-39
2023/02/08 00:21:43;;;;;;;7.65;4.07;;;;;;;;;;5034000;28;20037;-39
2023/02/08 00:24:08;;;;;;;11.80;4.82;;;;;;;;;;5033631;28;20021;-39
2023/02/08 00:26:34;;;;;;;11.55;5.38;;;;;;;;;;5033719;28;20132;-39
2023/02/08 00:29:00;;;;;;;14.27;6.15;;;;;;;;;;5033925;28;20148;-39
2023/02/08 00:31:26;;;;;;;10.27;4.85;;;;;;;;;;5015998;28;20057;-39
2023/02/08 00:33:51;;;;;;;9.32;5.05;;;;;;;;;;5033620;28;20024;-39
2023/02/08 00:36:16;;;;;;;5.18;2.95;;;;;;;;;;5033541;28;20120;-39
2023/02/08 00:38:42;;;;;;;15.77;5.43;;;;;;;;;;5033546;28;20459;-39
2023/02/08 00:41:07;;;;;;;8.25;4.15;;;;;;;;;;5065439;28;20468;-39
2023/02/08 00:43:33;;;;;;;8.80;5.18;;;;;;;;;;5032259;28;20021;-39
2023/02/08 00:45:58;;;;;;;12.32;6.15;;;;;;;;;;5033559;28;20030;-39
2023/02/08 00:48:24;;;;;;;11.63;6.03;;;;;;;;;;5033350;28;20028;-39
2023/02/08 00:50:57;;;;;;;13.25;6.45;;;;;;;;;;5033322;28;20022;-39
2023/02/08 00:53:22;;;;;;;12.70;6.03;;;;;;;;;;5033266;28;20037;-39
2023/02/08 00:55:54;;;;;;;6.45;4.13;;;;;;;;;;5033354;28;20031;-39
2023/02/08 00:58:20;;;;;;;9.95;5.47;;;;;;;;;;5033323;28;20061;-39
2023/02/08 01:00:46;;;;;;;11.88;5.40;;;;;;;;;;5033115;28;20022;-39
2023/02/08 01:03:11;;;;;;;13.10;7.15;;;;;;;;;;5033396;28;20037;-39
2023/02/08 01:05:37;;;;;;;15.45;6.68;;;;;;;;;;5031855;28;20022;-39
2023/02/08 01:08:02;;;;;;;12.85;6.20;;;;;;;;;;5048286;28;20033;-39
2023/02/08 01:10:28;;;;;;;15.95;6.80;;;;;;;;;;5065127;28;20383;-39
2023/02/08 01:12:53;;;;;;;14.88;6.30;;;;;;;;;;5033278;28;20033;-39
2023/02/08 01:15:19;;;;;;;16.98;7.13;;;;;;;;;;5032963;28;20478;-39
2023/02/08 01:17:44;;;;;;;14.73;6.10;;;;;;;;;;4992406;28;1165121;-43
2023/02/08 01:20:10;;;;;;;11.35;5.53;;;;;;;;;;5048917;28;20034;-39
2023/02/08 01:22:35;;;;;;;16.55;6.15;;;;;;;;;;5032579;28;20049;-39
2023/02/08 01:25:01;;;;;;;10.38;3.00;;;;;;;;;;5065930;28;20029;-39
2023/02/08 01:27:26;;;;;;;4.28;2.03;;;;;;;;;;5033866;28;20065;-39
2023/02/08 01:29:51;;;;;;;12.75;5.80;;;;;;;;;;5032578;28;20021;-39
2023/02/08 01:32:17;;;;;;;8.38;6.15;;;;;;;;;;5034006;28;20120;-39
2023/02/08 01:34:42;;;;;;;10.85;5.43;;;;;;;;;;5032497;28;20449;-39
2023/02/08 01:37:08;;;;;;;11.13;6.88;;;;;;;;;;5065643;28;20670;-40
2023/02/08 01:39:33;;;;;;;13.52;6.15;;;;;;;;;;5032381;28;20018;-39
2023/02/08 01:41:59;;;;;;;8.02;5.80;;;;;;;;;;5033723;28;20041;-39
2023/02/08 01:44:43;;;;;;;15.40;5.90;;;;;;;;;;5032599;28;20018;-39
2023/02/08 01:47:09;;;;;;;22.55;5.43;;;;;;;;;;5033725;28;20415;-39
2023/02/08 01:49:35;;;;;;;12.10;6.30;;;;;;;;;;5033772;28;20017;-38
2023/02/08 01:52:07;;;;;;;9.35;5.28;;;;;;;;;;5033374;28;20029;-39
2023/02/08 01:54:39;;;;;;;10.40;5.15;;;;;;;;;;5033709;28;20033;-39
2023/02/08 01:57:05;;;;;;;13.90;6.32;;;;;;;;;;5031908;28;20056;-39
2023/02/08 01:59:50;;;;;;;13.48;6.55;;;;;;;;;;5033294;28;20368;-39
2023/02/08 02:02:18;;;;;;;9.82;5.72;;;;;;;;;;5032604;28;20053;-40
2023/02/08 02:04:44;;;;;;;6.72;2.70;;;;;;;;;;5065238;28;20026;-39
2023/02/08 02:07:09;;;;;;;11.65;5.43;;;;;;;;;;5031752;28;20033;-40
2023/02/08 02:09:45;;;;;;;5.00;2.20;;;;;;;;;;5031924;28;20026;-39
2023/02/08 02:12:11;;;;;;;14.77;6.93;;;;;;;;;;5048228;28;20060;-39
2023/02/08 02:14:37;;;;;;;8.68;5.25;;;;;;;;;;5031693;28;20470;-39
2023/02/08 02:17:04;;;;;;;10.82;6.47;;;;;;;;;;5031587;28;20117;-39
2023/02/08 02:19:29;;;;;;;9.80;6.40;;;;;;;;;;5031451;28;20088;-39
2023/02/08 02:22:06;;;;;;;14.13;5.15;;;;;;;;;;5032762;28;20080;-39
2023/02/08 02:24:34;;;;;;;12.05;5.47;;;;;;;;;;5064830;28;20483;-38
2023/02/08 02:27:00;;;;;;;15.05;7.07;;;;;;;;;;5032559;28;20022;-39
2023/02/08 02:29:26;;;;;;;13.73;7.13;;;;;;;;;;5033098;28;20099;-39
2023/02/08 02:31:58;;;;;;;2.40;2.10;;;;;;;;;;5030630;28;20022;-39
2023/02/08 02:34:31;;;;;;;2.28;1.45;;;;;;;;;;5031448;28;20498;-39
2023/02/08 02:37:06;;;;;;;12.82;6.97;;;;;;;;;;5032462;28;20399;-39
2023/02/08 02:39:54;;;;;;;11.32;6.35;;;;;;;;;;5032843;28;20032;-39
2023/02/08 02:45:27;;;;;;;9.68;4.93;;;;;;;;;;5064518;28;20034;-39
2023/02/08 02:48:09;;;;;;;8.20;4.32;;;;;;;;;;5032602;28;20061;-39
2023/02/08 02:50:39;;;;;;;7.65;5.00;;;;;;;;;;5032658;28;20055;-39
2023/02/08 02:53:07;;;;;;;11.27;6.13;;;;;;;;;;5032236;28;20071;-39
2023/02/08 02:55:35;;;;;;;14.63;6.82;;;;;;;;;;5032304;28;20104;-39
2023/02/08 02:58:01;;;;;;;9.38;5.30;;;;;;;;;;5032122;28;20018;-39
2023/02/08 03:00:27;;;;;;;15.50;6.03;;;;;;;;;;5032353;28;20103;-39
2023/02/08 03:02:54;;;;;;;10.38;6.22;;;;;;;;;;5032650;28;20040;-39
2023/02/08 03:05:20;;;;;;;10.18;5.00;;;;;;;;;;5032329;28;20038;-39
2023/02/08 03:08:04;;;;;;;11.57;7.25;;;;;;;;;;5032216;28;20099;-39
2023/02/08 03:10:35;;;;;;;5.78;4.60;;;;;;;;;;5031994;28;20045;-39
2023/02/08 03:13:04;;;;;;;5.55;3.67;;;;;;;;;;5031937;28;20510;-40
2023/02/08 03:15:29;;;;;;;13.77;5.00;;;;;;;;;;5031747;28;20056;-39
2023/02/08 03:18:03;;;;;;;12.50;6.35;;;;;;;;;;5031845;28;20068;-39
2023/02/08 03:20:31;;;;;;;16.75;6.75;;;;;;;;;;5031871;28;20113;-39
2023/02/08 03:22:57;;;;;;;14.27;6.72;;;;;;;;;;5031609;28;20463;-39
2023/02/08 03:25:25;;;;;;;12.50;6.43;;;;;;;;;;5031768;28;20121;-39
2023/02/08 03:28:03;;;;;;;6.57;3.75;;;;;;;;;;5063768;28;20021;-39
2023/02/08 03:30:34;;;;;;;10.73;3.35;;;;;;;;;;5031612;28;20030;-39
2023/02/08 03:33:12;;;;;;;14.98;7.00;;;;;;;;;;5031563;28;20495;-39
2023/02/08 03:35:47;;;;;;;12.38;7.40;;;;;;;;;;5031905;28;20117;-39
2023/02/08 03:38:21;;;;;;;11.73;6.53;;;;;;;;;;5031422;28;20554;-39
2023/02/08 03:40:48;;;;;;;15.98;7.15;;;;;;;;;;5031503;28;20123;-39
2023/02/08 03:43:23;;;;;;;9.90;6.40;;;;;;;;;;5031501;28;20032;-39
2023/02/08 03:45:51;;;;;;;22.80;6.63;;;;;;;;;;5031468;28;20036;-39
2023/02/08 03:48:17;;;;;;;15.43;5.80;;;;;;;;;;5031607;28;20116;-39
2023/02/08 03:50:44;;;;;;;3.90;3.58;;;;;;;;;;5031740;28;20511;-39
2023/02/08 03:53:11;;;;;;;11.65;5.15;;;;;;;;;;5031400;28;20368;-40
2023/02/08 03:55:38;;;;;;;15.85;5.00;;;;;;;;;;5031374;28;20080;-39
2023/02/08 03:58:09;;;;;;;11.65;4.63;;;;;;;;;;5031202;28;20082;-39
2023/02/08 04:00:36;;;;;;;19.50;7.28;;;;;;;;;;5031337;28;20041;-39
2023/02/08 04:03:07;;;;;;;7.95;4.90;;;;;;;;;;5031146;28;20040;-39
2023/02/08 04:05:32;;;;;;;12.32;5.85;;;;;;;;;;5031201;28;20472;-39
2023/02/08 04:07:58;;;;;;;8.93;5.25;;;;;;;;;;5031152;28;20025;-40
2023/02/08 04:10:23;;;;;;;14.70;5.50;;;;;;;;;;5031582;28;20029;-39
2023/02/08 04:12:49;;;;;;;12.82;6.40;;;;;;;;;;5031468;28;20579;-39
2023/02/08 04:15:15;;;;;;;12.45;6.40;;;;;;;;;;5031096;28;20135;-39
2023/02/08 04:17:40;;;;;;;7.53;4.65;;;;;;;;;;5030941;28;20080;-39
2023/02/08 04:20:06;;;;;;;11.05;5.22;;;;;;;;;;5031141;28;20036;-39
2023/02/08 04:22:32;;;;;;;9.98;6.15;;;;;;;;;;5031389;28;20057;-39
2023/02/08 04:24:58;;;;;;;15.13;6.53;;;;;;;;;;5031107;28;20030;-39
2023/02/08 04:27:23;;;;;;;10.88;5.13;;;;;;;;;;5031286;28;20025;-39
2023/02/08 04:29:48;;;;;;;7.32;3.88;;;;;;;;;;5031358;28;20399;-39
2023/02/08 04:32:14;;;;;;;14.82;5.30;;;;;;;;;;5031007;28;20020;-39
2023/02/08 04:34:39;;;;;;;9.80;4.05;;;;;;;;;;5031030;28;20358;-39
2023/02/08 04:37:05;;;;;;;6.50;4.55;;;;;;;;;;5030987;28;20052;-38
2023/02/08 04:39:31;;;;;;;3.40;2.42;;;;;;;;;;5031363;28;20077;-39
2023/02/08 04:41:56;;;;;;;8.52;5.38;;;;;;;;;;5030765;28;20033;-38
2023/02/08 04:44:22;;;;;;;25.20;8.20;;;;;;;;;;5031214;28;20072;-39
2023/02/08 04:46:47;;;;;;;14.13;4.38;;;;;;;;;;5030918;28;20414;-39
2023/02/08 04:49:12;;;;;;;18.50;6.70;;;;;;;;;;5030769;28;20033;-39
2023/02/08 04:51:38;;;;;;;11.48;5.43;;;;;;;;;;5031171;28;20064;-39
2023/02/08 04:54:03;;;;;;;11.25;5.80;;;;;;;;;;5030783;28;20029;-39
2023/02/08 04:56:28;;;;;;;14.75;5.50;;;;;;;;;;5033929;28;20056;-38
2023/02/08 04:58:54;;;;;;;11.45;5.22;;;;;;;;;;5034536;28;20433;-39
2023/02/08 05:01:19;;;;;;;9.77;4.97;;;;;;;;;;5034199;28;20038;-38
2023/02/08 05:03:44;;;;;;;9.43;4.88;;;;;;;;;;5034432;28;20033;-39
2023/02/08 05:06:10;;;;;;;14.55;5.85;;;;;;;;;;5034224;28;20031;-39
2023/02/08 05:08:35;;;;;;;12.38;4.72;;;;;;;;;;5034273;28;20026;-39
2023/02/08 05:11:00;;;;;;;17.92;6.90;;;;;;;;;;5034398;28;20021;-39
2023/02/08 05:13:26;;;;;;;7.50;5.53;;;;;;;;;;5034261;28;20438;-38
2023/02/08 05:15:51;;;;;;;16.88;6.05;;;;;;;;;;5034291;28;20025;-39
2023/02/08 05:18:17;;;;;;;11.43;7.40;;;;;;;;;;5034064;28;20124;-39
2023/02/08 05:20:42;;;;;;;8.18;5.00;;;;;;;;;;5034136;28;20061;-39
2023/02/08 05:23:07;;;;;;;9.77;6.00;;;;;;;;;;5033801;28;20075;-39
2023/02/08 05:25:33;;;;;;;12.93;5.82;;;;;;;;;;5034317;28;20031;-39
2023/02/08 05:27:58;;;;;;;11.65;5.18;;;;;;;;;;5033804;28;20033;-39
2023/02/08 05:30:24;;;;;;;7.88;4.97;;;;;;;;;;5033817;28;20101;-39
2023/02/08 05:32:49;;;;;;;11.25;3.80;;;;;;;;;;5033850;28;20025;-39
2023/02/08 05:35:15;;;;;;;10.05;5.45;;;;;;;;;;5033984;28;20034;-39
2023/02/08 05:37:40;;;;;;;10.88;6.82;;;;;;;;;;5033641;28;20037;-41
2023/02/08 05:40:05;;;;;;;12.15;5.72;;;;;;;;;;5033872;28;20040;-38
2023/02/08 05:42:31;;;;;;;13.25;5.35;;;;;;;;;;5033647;28;20055;-39
2023/02/08 05:44:56;;;;;;;6.38;4.18;;;;;;;;;;5033529;28;20025;-39
2023/02/08 05:47:21;;;;;;;15.32;5.93;;;;;;;;;;5033443;28;20048;-38
2023/02/08 05:49:47;;;;;;;15.23;4.22;;;;;;;;;;5033871;28;20075;-39
2023/02/08 05:52:12;;;;;;;9.40;5.05;;;;;;;;;;5033601;28;20105;-39
2023/02/08 05:54:37;;;;;;;12.48;6.40;;;;;;;;;;5033466;28;20021;-39
2023/02/08 05:57:03;;;;;;;10.27;5.85;;;;;;;;;;5033487;28;20028;-39
2023/02/08 05:59:28;;;;;;;4.78;3.63;;;;;;;;;;5033539;28;20029;-39
2023/02/08 06:01:54;;;;;;;7.22;6.00;;;;;;;;;;5033210;28;20120;-38
2023/02/08 06:04:19;;;;;;;17.52;5.82;;;;;;;;;;5033174;28;20025;-39
2023/02/08 06:06:45;;;;;;;11.38;5.28;;;;;;;;;;5031934;28;20038;-39
2023/02/08 06:09:10;;;;;;;11.43;5.55;;;;;;;;;;5033133;28;20021;-39
2023/02/08 06:11:35;;;;;;;11.35;5.15;;;;;;;;;;5033073;28;20041;-39
2023/02/08 06:14:02;;;;;;;15.48;6.35;;;;;;;;;;5033251;28;20071;-39
2023/02/08 06:16:27;;;;;;;9.13;4.25;;;;;;;;;;5033276;28;20033;-39
2023/02/08 06:18:53;;;;;;;5.93;4.38;;;;;;;;;;5032995;28;20049;-39
2023/02/08 06:21:18;;;;;;;8.95;5.65;;;;;;;;;;5032922;28;20534;-39
2023/02/08 06:23:44;;;;;;;14.20;5.63;;;;;;;;;;5031749;28;20017;-39
2023/02/08 06:26:09;;;;;;;14.57;5.57;;;;;;;;;;5032718;28;20037;-39
2023/02/08 06:28:34;;;;;;;14.90;5.95;;;;;;;;;;5031492;28;20021;-39
2023/02/08 06:31:00;;;;;;;12.43;5.53;;;;;;;;;;5032655;28;20026;-39
2023/02/08 06:33:25;;;;;;;10.02;4.45;;;;;;;;;;5032801;28;20249;-39
2023/02/08 06:35:51;;;;;;;14.13;5.32;;;;;;;;;;5032840;28;20467;-39
2023/02/08 06:38:16;;;;;;;7.57;4.47;;;;;;;;;;5032541;28;20495;-39
2023/02/08 06:40:42;;;;;;;5.32;3.40;;;;;;;;;;5032599;28;20083;-39
2023/02/08 06:43:07;;;;;;;12.25;6.57;;;;;;;;;;5032352;28;20060;-39
2023/02/08 06:45:33;;;;;;;4.15;3.67;;;;;;;;;;5032728;28;20080;-39
2023/02/08 06:47:58;;;;;;;12.18;6.07;;;;;;;;;;5032258;28;20040;-39
2023/02/08 06:50:23;;;;;;;6.93;5.25;;;;;;;;;;5032398;28;20044;-39
2023/02/08 06:52:49;;;;;;;16.17;5.57;;;;;;;;;;5032631;28;20152;-39
2023/02/08 06:55:14;;;;;;;11.07;5.78;;;;;;;;;;5032446;28;20487;-39
2023/02/08 06:57:40;;;;;;;14.70;6.05;;;;;;;;;;5032266;28;20021;-39
2023/02/08 07:00:06;;;;;;;18.75;7.05;;;;;;;;;;5032402;28;20030;-39
2023/02/08 07:02:32;;;;;;;11.73;4.65;;;;;;;;;;5032295;28;20063;-39
2023/02/08 07:04:57;;;;;;;6.57;3.97;;;;;;;;;;5032522;28;20379;-39
2023/02/08 07:07:23;;;;;;;10.88;6.15;;;;;;;;;;5031878;28;20026;-39
2023/02/08 07:09:48;;;;;;;9.07;6.35;;;;;;;;;;5032301;28;20045;-39
2023/02/08 07:12:14;;;;;;;1.55;1.55;;;;;;;;;;5031988;28;20083;-39
2023/02/08 07:14:40;;;;;;;6.15;3.22;;;;;;;;;;5032258;28;20087;-39
2023/02/08 07:17:06;;;;;;;1.88;1.55;;;;;;;;;;5031920;28;20027;-39
2023/02/08 07:19:31;;;;;;;5.32;2.78;;;;;;;;;;5031301;28;20041;-39
2023/02/08 07:22:03;;;;;;;10.07;5.50;;;;;;;;;;5032028;28;20480;-39
2023/02/08 07:24:29;;;;;;;5.82;3.63;;;;;;;;;;5031792;28;20022;-39
2023/02/08 07:26:54;;;;;;;10.70;4.43;;;;;;;;;;5031737;28;20028;-39
2023/02/08 07:29:20;;;;;;;13.20;4.57;;;;;;;;;;5031698;28;20022;-38
2023/02/08 07:31:45;;;;;;;13.13;6.90;;;;;;;;;;5031656;28;20357;-39
2023/02/08 07:34:11;;;;;;;2.83;1.83;;;;;;;;;;5031594;28;20396;-39
2023/02/08 07:36:37;;;;;;;17.65;6.82;;;;;;;;;;5031561;28;20105;-39
2023/02/08 07:39:02;;;;;;;7.10;5.05;;;;;;;;;;5063583;28;20025;-39
2023/02/08 07:41:28;;;;;;;24.20;8.10;;;;;;;;;;5031487;28;20036;-39
2023/02/08 07:43:54;;;;;;;2.33;1.92;;;;;;;;;;5031803;28;20030;-39
2023/02/08 07:46:20;;;;;;;8.68;4.75;;;;;;;;;;5031308;28;20389;-39
2023/02/08 07:48:48;;;;;;;11.07;8.63;;;;;;;;;;5031822;28;20388;-39
2023/02/08 07:51:13;;;;;;;8.18;4.43;;;;;;;;;;5031157;28;20472;-39
2023/02/08 07:53:39;;;;;;;5.20;3.42;;;;;;;;;;5030229;28;20033;-39
2023/02/08 07:56:04;;;;;;;11.57;6.30;;;;;;;;;;5030036;28;20083;-39
2023/02/08 07:58:30;;;;;;;4.78;2.72;;;;;;;;;;5031415;28;20033;-39
2023/02/08 08:00:55;;;;;;;11.15;7.47;;;;;;;;;;5031284;28;20021;-39
2023/02/08 08:03:21;;;;;;;12.90;2.67;;;;;;;;;;5031305;28;20053;-39
2023/02/08 08:05:47;;;;;;;9.95;5.30;;;;;;;;;;5031289;28;20517;-39
2023/02/08 08:08:13;;;;;;;16.17;10.23;;;;;;;;;;5031137;28;20505;-39
2023/02/08 08:10:38;;;;;;;5.00;3.10;;;;;;;;;;5031629;28;20025;-39
2023/02/08 08:13:04;;;;;;;1.60;1.33;;;;;;;;;;5063217;28;20479;-40
2023/02/08 08:15:30;;;;;;;6.85;3.65;;;;;;;;;;5031178;28;20053;-39
2023/02/08 08:17:56;;;;;;;4.53;3.88;;;;;;;;;;5029756;28;20148;-39
2023/02/08 08:20:21;;;;;;;11.18;6.82;;;;;;;;;;5031193;28;20087;-39
2023/02/08 08:22:48;;;;;;;3.42;2.85;;;;;;;;;;5031027;28;20049;-39
2023/02/08 08:25:13;;;;;;;3.97;3.42;;;;;;;;;;5031156;28;20024;-39
2023/02/08 08:27:39;;;;;;;7.28;3.58;;;;;;;;;;5031040;28;20037;-39
2023/02/08 08:30:05;;;;;;;6.65;4.28;;;;;;;;;;5032135;28;20072;-39
2023/02/08 08:32:31;;;;;;;3.40;2.60;;;;;;;;;;5034974;28;20033;-38
2023/02/08 08:34:57;;;;;;;3.17;2.17;;;;;;;;;;5034935;28;20032;-39
2023/02/08 08:37:22;;;;;;;3.83;1.92;;;;;;;;;;5034756;28;20037;-39
2023/02/08 08:39:48;;;;;;;11.88;6.03;;;;;;;;;;5035176;28;20022;-39
2023/02/08 08:42:13;;;;;;;2.63;2.42;;;;;;;;;;5034898;28;20041;-39
2023/02/08 08:44:39;;;;;;;14.02;6.07;;;;;;;;;;5035052;28;20029;-39
2023/02/08 08:47:04;;;;;;;12.23;7.50;;;;;;;;;;5034824;28;20483;-39
2023/02/08 08:49:30;;;;;;;0.70;0.70;;;;;;;;;;5034696;28;20357;-39
2023/02/08 08:51:55;;;;;;;11.23;5.10;;;;;;;;;;5034695;28;20516;-39
2023/02/08 08:54:21;;;;;;;9.02;5.45;;;;;;;;;;5034537;28;20510;-39
2023/02/08 08:56:47;;;;;;;3.95;3.05;;;;;;;;;;5034502;28;20116;-39
2023/02/08 08:59:12;;;;;;;7.72;4.70;;;;;;;;;;5034480;28;20009;-39
2023/02/08 09:01:40;;;;;;;9.88;5.10;;;;;;;;;;5034355;28;20048;-39
2023/02/08 09:04:05;;;;;;;1.95;1.85;;;;;;;;;;5034269;28;20049;-39
2023/02/08 09:06:31;;;;;;;8.82;4.03;;;;;;;;;;5034346;28;20123;-39
2023/02/08 09:08:56;;;;;;;8.93;4.35;;;;;;;;;;5034689;28;20139;-39
2023/02/08 09:11:21;;;;;;;4.93;3.85;;;;;;;;;;5034090;28;20590;-39
2023/02/08 09:13:51;;;;;;;3.70;3.03;;;;;;;;;;5034565;28;20036;-39
2023/02/08 09:16:17;;;;;;;2.72;2.50;;;;;;;;;;5034042;28;20041;-39
2023/02/08 09:18:43;;;;;;;2.92;2.50;;;;;;;;;;5034045;28;20049;-39
2023/02/08 09:21:10;;;;;;;7.30;4.28;;;;;;;;;;5033950;28;20476;-39
2023/02/08 09:23:36;;;;;;;8.65;3.30;;;;;;;;;;5034093;28;20025;-39
2023/02/08 09:26:05;;;;;;;3.33;1.85;;;;;;;;;;5033810;28;20121;-39
2023/02/08 09:28:30;;;;;;;2.60;2.40;;;;;;;;;;5033951;28;20026;-40
2023/02/08 09:30:56;;;;;;;1.00;1.00;;;;;;;;;;5034181;28;20030;-39
2023/02/08 09:33:21;;;;;;;3.38;0.82;;;;;;;;;;5033786;28;20022;-39
2023/02/08 09:35:47;;;;;;;3.17;2.88;;;;;;;;;;5033749;28;20079;-39
2023/02/08 09:38:13;;;;;;;5.78;3.67;;;;;;;;;;5033702;28;20053;-39
2023/02/08 09:40:46;;;;;;;4.00;2.63;;;;;;;;;;5033437;28;20057;-39
2023/02/08 09:43:15;;;;;;;5.07;4.03;;;;;;;;;;5033543;28;20034;-39
2023/02/08 09:45:56;;;;;;;1.38;1.27;;;;;;;;;;5033642;28;20022;-38
2023/02/08 09:48:23;;;;;;;2.85;1.60;;;;;;;;;;5033811;28;20482;-39
2023/02/08 09:50:55;;;;;;;11.65;4.25;;;;;;;;;;5033522;28;20025;-38
2023/02/08 09:53:23;;;;;;;3.45;2.45;;;;;;;;;;5033419;28;20077;-39
2023/02/08 09:55:51;;;;;;;2.85;1.77;;;;;;;;;;5033436;28;20018;-39
2023/02/08 09:58:23;;;;;;;8.25;4.28;;;;;;;;;;5033420;28;20098;-39
2023/02/08 10:00:49;;;;;;;14.10;7.68;;;;;;;;;;5033349;28;20121;-39
2023/02/08 10:03:35;;;;;;;5.68;3.53;;;;;;;;;;5033202;28;20040;-39
2023/02/08 10:06:02;;;;;;;10.38;3.83;;;;;;;;;;5033215;28;20060;-39
2023/02/08 10:08:28;;;;;;;5.47;2.92;;;;;;;;;;5033184;28;20544;-39
2023/02/08 10:11:08;;;;;;;4.10;2.83;;;;;;;;;;5033472;28;20029;-40
2023/02/08 10:13:41;;;;;;;4.05;2.90;;;;;;;;;;5033178;28;20033;-39
2023/02/08 10:16:06;;;;;;;14.18;4.30;;;;;;;;;;5032915;28;20128;-39
2023/02/08 10:18:31;;;;;;;9.93;4.70;;;;;;;;;;5032864;28;20120;-39
2023/02/08 10:21:06;;;;;;;8.13;5.60;;;;;;;;;;5033005;28;20033;-39
2023/02/08 10:23:31;;;;;;;8.55;5.70;;;;;;;;;;5032872;28;20373;-39
2023/02/08 10:26:12;;;;;;;1.90;0.90;;;;;;;;;;5033134;28;20026;-39
2023/02/08 10:28:47;;;;;;;4.88;3.55;;;;;;;;;;5032812;28;20037;-39
2023/02/08 10:31:12;;;;;;;6.40;4.20;;;;;;;;;;5032717;28;20033;-39
2023/02/08 10:33:57;;;;;;;8.82;4.03;;;;;;;;;;5031242;28;20022;-39
2023/02/08 10:36:25;;;;;;;1.83;1.40;;;;;;;;;;5032754;28;20356;-39
2023/02/08 10:38:51;;;;;;;9.05;6.35;;;;;;;;;;5032948;28;20026;-39
2023/02/08 10:41:19;;;;;;;6.60;4.18;;;;;;;;;;5032368;28;20041;-39
2023/02/08 10:43:48;;;;;;;1.40;0.90;;;;;;;;;;5047970;28;20160;-43
2023/02/08 10:46:13;;;;;;;5.43;3.75;;;;;;;;;;5032193;28;20037;-39
2023/02/08 10:48:51;;;;;;;12.68;5.32;;;;;;;;;;5032427;28;20083;-40
2023/02/08 10:51:18;;;;;;;12.32;5.63;;;;;;;;;;5032169;28;20033;-40
2023/02/08 10:53:44;;;;;;;2.58;1.95;;;;;;;;;;5031799;28;20014;-39
2023/02/08 10:56:28;;;;;;;16.70;8.52;;;;;;;;;;5032131;28;20037;-39
2023/02/08 10:58:54;;;;;;;15.82;8.77;;;;;;;;;;5032604;28;20380;-39
2023/02/08 11:01:19;;;;;;;9.68;4.72;;;;;;;;;;5032145;28;20052;-39
2023/02/08 11:04:03;;;;;;;17.13;8.38;;;;;;;;;;5047643;28;20061;-39
2023/02/08 11:06:29;;;;;;;13.57;6.88;;;;;;;;;;5032128;28;20034;-39
2023/02/08 11:08:55;;;;;;;4.85;3.00;;;;;;;;;;5032469;28;20036;-36
2023/02/08 11:11:21;;;;;;;8.38;4.38;;;;;;;;;;5032017;28;20585;-59
2023/02/08 11:13:51;;;;;;;4.57;2.55;;;;;;;;;;5030617;28;20036;-58
2023/02/08 11:16:24;;;;;;;6.32;4.03;;;;;;;;;;5031816;28;20037;-61
2023/02/08 11:18:49;;;;;;;;;;;;;;;;;;5032261;28;20045;-60
2023/02/08 11:21:44;;;;;;;5.18;2.35;;;;;;;;;;5047315;28;19912;-59
2023/02/08 11:24:22;;;;;;;7.10;4.20;;;;;;;;;;5018721;28;20140;-60
2023/02/08 11:26:48;;;;;;;6.40;3.25;;;;;;;;;;5047022;28;20029;-60
2023/02/08 11:29:18;;;;;;;3.38;2.75;;;;;;;;;;5030580;28;20036;-61
2023/02/08 11:31:53;;;;;;;14.95;4.95;;;;;;;;;;5030425;28;20116;-61
2023/02/08 11:34:23;;;;;;;8.38;4.93;;;;;;;;;;5031668;28;20507;-55
2023/02/08 11:36:48;;;;;;;8.43;2.53;;;;;;;;;;5031876;28;20471;-54
2023/02/08 11:39:17;;;;;;;6.60;4.05;;;;;;;;;;5031836;28;20041;-55
2023/02/08 11:41:46;;;;;;;7.82;5.18;;;;;;;;;;5031518;28;20060;-55
2023/02/08 11:44:19;;;;;;;8.13;3.80;;;;;;;;;;5031535;28;20472;-55
2023/02/08 11:46:47;;;;;;;2.90;2.15;;;;;;;;;;5031800;28;20084;-50
2023/02/08 11:49:24;;;;;;;8.75;3.75;;;;;;;;;;5031723;28;20033;-49
2023/02/08 11:51:51;;;;;;;3.63;2.80;;;;;;;;;;5031511;28;20060;-50
2023/02/08 11:54:38;;;;;;;5.22;3.42;;;;;;;;;;5031440;28;20032;-50
2023/02/08 11:57:11;;;;;;;8.18;3.42;;;;;;;;;;5031376;28;20460;-50
2023/02/08 11:59:36;;;;;;;;;;;;;;;;;;5031904;28;20124;-50
2023/02/08 12:02:17;;;;;;;3.15;1.38;;;;;;;;;;5031597;28;20001;-50
2023/02/08 12:04:42;;;;;;;6.68;2.97;;;;;;;;;;5033624;28;20030;-50
2023/02/08 12:07:31;;;;;;;2.42;2.22;;;;;;;;;;5035372;28;20066;-51
2023/02/08 12:10:10;;;;;;;3.20;2.33;;;;;;;;;;5007020;28;20107;-50
2023/02/08 12:12:37;;;;;;;3.53;2.72;;;;;;;;;;5035695;28;20034;-50
2023/02/08 12:15:08;;;;;;;1.60;1.50;;;;;;;;;;5035426;28;20053;-51
2023/02/08 12:17:43;;;;;;;5.30;2.72;;;;;;;;;;5035474;28;20040;-51
2023/02/08 12:20:27;;;;;;;4.20;2.65;;;;;;;;;;5035556;28;20033;-51
2023/02/08 12:23:08;;;;;;;6.97;2.47;;;;;;;;;;5035180;28;20065;-51
2023/02/08 12:25:34;;;;;;;6.85;3.45;;;;;;;;;;5017378;28;20025;-51
2023/02/08 12:28:05;;;;;;;3.00;2.13;;;;;;;;;;5035484;28;20102;-51
2023/02/08 12:30:51;;;;;;;3.83;2.20;;;;;;;;;;5035078;28;20079;-50
2023/02/08 12:33:19;;;;;;;6.22;4.05;;;;;;;;;;5035182;28;20434;-50
2023/02/08 12:35:51;;;;;;;1.67;0.98;;;;;;;;;;5034963;28;20032;-51
2023/02/08 12:41:14;;;;;;;3.47;2.90;;;;;;;;;;5034633;28;20566;-51
2023/02/08 12:43:48;;;;;;;3.67;2.72;;;;;;;;;;5034865;28;20046;-51
2023/02/08 12:46:26;;;;;;;5.40;3.65;;;;;;;;;;5034713;28;20056;-52
2023/02/08 12:49:21;;;;;;;6.28;3.58;;;;;;;;;;5034783;28;20116;-51
2023/02/08 12:51:47;;;;;;;1.60;1.50;;;;;;;;;;5021652;28;20471;-51
2023/02/08 12:54:32;;;;;;;1.67;1.55;;;;;;;;;;5034947;28;20018;-51
2023/02/08 12:56:58;;;;;;;1.30;0.93;;;;;;;;;;5034436;28;20029;-51
2023/02/08 12:59:27;;;;;;;7.90;2.35;;;;;;;;;;5034516;28;20021;-51
2023/02/08 13:01:56;;;;;;;4.80;2.53;;;;;;;;;;5033286;28;20038;-50
2023/02/08 13:04:26;;;;;;;5.15;2.47;;;;;;;;;;5034429;28;20017;-51
2023/02/08 13:07:03;;;;;;;5.38;3.90;;;;;;;;;;5034383;28;20128;-52
2023/02/08 13:09:31;;;;;;;5.45;2.10;;;;;;;;;;5034353;28;20498;-52
2023/02/08 13:12:03;;;;;;;6.93;3.63;;;;;;;;;;5034648;28;20057;-51
2023/02/08 13:14:36;;;;;;;3.20;0.70;;;;;;;;;;5034188;28;20026;-51
2023/02/08 13:17:22;;;;;;;4.90;1.95;;;;;;;;;;5033420;28;20475;-51
2023/02/08 13:20:18;;;;;;;4.70;2.65;;;;;;;;;;5032582;28;20091;-51
2023/02/08 13:22:44;;;;;;;3.45;2.42;;;;;;;;;;5020692;28;20064;-51
2023/02/08 13:25:29;;;;;;;2.30;0.75;;;;;;;;;;5014672;28;20093;-51
2023/02/08 13:27:59;;;;;;;1.00;0.68;;;;;;;;;;5009159;28;20117;-51
2023/02/08 13:30:24;;;;;;;6.05;2.40;;;;;;;;;;5009651;28;20480;-51
2023/02/08 13:32:50;;;;;;;2.67;1.73;;;;;;;;;;4994604;28;20035;-51
2023/02/08 13:35:22;;;;;;;1.65;1.55;;;;;;;;;;4994393;28;20034;-51
2023/02/08 13:37:57;;;;;;;6.05;2.75;;;;;;;;;;4994643;28;20062;-51
2023/02/08 13:40:28;;;;;;;5.43;2.83;;;;;;;;;;4994378;28;20034;-51
2023/02/08 13:43:08;;;;;;;6.57;3.38;;;;;;;;;;4994373;28;20046;-52
2023/02/08 13:45:35;;;;;;;4.03;3.42;;;;;;;;;;4994321;28;20128;-50
2023/02/08 13:48:05;;;;;;;4.32;1.65;;;;;;;;;;4994224;28;20096;-51
2023/02/08 13:50:33;;;;;;;8.10;3.10;;;;;;;;;;4994169;28;20121;-51
2023/02/08 13:52:59;;;;;;;4.40;1.85;;;;;;;;;;4993077;28;20028;-51
2023/02/08 13:55:27;;;;;;;0.40;0.35;;;;;;;;;;4994331;28;20384;-51
2023/02/08 13:57:54;;;;;;;4.30;1.35;;;;;;;;;;4993848;28;20055;-51
2023/02/08 14:00:19;;;;;;;1.02;0.93;;;;;;;;;;4994251;28;20054;-51
2023/02/08 14:03:17;;;;;;;8.05;2.08;;;;;;;;;;4994006;28;20030;-51
2023/02/08 14:05:45;;;;;;;3.08;2.65;;;;;;;;;;4997461;28;20039;-51
2023/02/08 14:08:29;;;;;;;3.08;1.80;;;;;;;;;;4993830;28;20404;-51
2023/02/08 14:11:14;;;;;;;0.75;0.75;;;;;;;;;;4994214;28;20536;-51
2023/02/08 14:13:45;;;;;;;1.88;1.77;;;;;;;;;;5025151;28;20041;-52
2023/02/08 14:16:29;;;;;;;5.93;2.10;;;;;;;;;;4993490;28;20498;-51
2023/02/08 14:18:56;;;;;;;4.15;1.13;;;;;;;;;;4993583;28;20580;-51
2023/02/08 14:21:27;;;;;;;3.40;2.08;;;;;;;;;;4993784;28;20034;-51
2023/02/08 14:24:18;;;;;;;2.25;1.63;;;;;;;;;;4993686;28;20045;-51
2023/02/08 14:26:44;;;;;;;1.48;1.38;;;;;;;;;;4994263;28;20493;-52
2023/02/08 14:29:18;;;;;;;2.05;1.48;;;;;;;;;;5006697;28;20057;-51
2023/02/08 14:31:44;;;;;;;2.75;1.02;;;;;;;;;;5011802;28;20062;-51
2023/02/08 14:34:36;;;;;;;4.55;1.95;;;;;;;;;;5013133;28;20045;-51
2023/02/08 14:37:21;;;;;;;3.60;2.08;;;;;;;;;;5008044;28;20041;-51
2023/02/08 14:39:51;;;;;;;3.67;1.88;;;;;;;;;;5011365;28;20066;-51
2023/02/08 14:42:35;;;;;;;4.78;1.95;;;;;;;;;;5012611;28;20053;-51
2023/02/08 14:45:01;;;;;;;2.95;1.25;;;;;;;;;;5012725;28;20507;-51
2023/02/08 14:47:27;;;;;;;3.05;2.05;;;;;;;;;;5012697;28;20057;-51
2023/02/08 14:50:12;;;;;;;3.83;2.40;;;;;;;;;;5012930;28;20029;-51
2023/02/08 14:52:38;;;;;;;1.42;1.20;;;;;;;;;;5012680;28;20650;-51
2023/02/08 14:55:06;;;;;;;4.60;1.92;;;;;;;;;;5012811;28;20032;-51